Time;durP1;ratioP1;P1;durP2;ratioP2;P2;SDS_P1;SDS_P2;PMS_P1;PMS_P2;Temp;Humidity;BMP_temperature;BMP_pressure;BME280_temperature;BME280_humidity;BME280_pressure;Samples;Min_cycle;Max_cycle;Signal;HPM_P1;HPM_P2
2023/04/04 00:00:23;;;;;;;9.27;3.27;;;;;;;-144.73;69.48;54391.28;6216831;23;20012;-70
2023/04/04 00:02:49;;;;;;;7.63;3.27;;;;;;;-144.73;69.53;54411.81;6223326;23;20004;-70
2023/04/04 00:05:14;;;;;;;11.33;3.43;;;;;;;-144.73;68.99;54411.81;6190984;23;20023;-70
2023/04/04 00:07:40;;;;;;;10.43;4.10;;;;;;;-144.73;68.96;54444.66;6220813;23;20083;-70
2023/04/04 00:10:05;;;;;;;16.13;3.13;;;;;;;-144.73;69.59;54366.66;6218075;23;20075;-70
2023/04/04 00:12:31;;;;;;;11.70;3.97;;;;;;;-144.73;70.28;54387.19;6221292;23;20004;-70
2023/04/04 00:14:56;;;;;;;8.17;3.47;;;;;;;-144.73;70.54;54395.38;6192221;23;20009;-70
2023/04/04 00:17:22;;;;;;;10.07;3.30;;;;;;;-144.73;71.65;54415.91;6195530;23;20004;-70
2023/04/04 00:19:47;;;;;;;18.30;3.93;;;;;;;-144.73;72.10;54397.44;6218982;23;20149;-70
2023/04/04 00:22:12;;;;;;;14.00;4.67;;;;;;;-144.73;72.92;54438.50;6196341;23;20009;-70
2023/04/04 00:24:38;;;;;;;13.80;4.53;;;;;;;-144.73;74.91;54407.69;6193344;23;20013;-70
2023/04/04 00:27:04;;;;;;;13.13;5.73;;;;;;;-144.73;74.78;54407.69;6196070;23;20000;-70
2023/04/04 00:29:29;;;;;;;25.20;5.53;;;;;;;-144.73;73.96;54395.38;6193980;23;20020;-71
2023/04/04 00:31:54;;;;;;;13.67;3.33;;;;;;;-144.73;73.15;54389.22;6196120;23;20039;-70
2023/04/04 00:34:20;;;;;;;12.10;3.37;;;;;;;-144.73;73.63;54440.53;6220573;23;20068;-70
2023/04/04 00:36:46;;;;;;;10.33;3.37;;;;;;;-144.73;73.67;54360.50;6195541;23;20086;-70
2023/04/04 00:39:11;;;;;;;8.20;2.90;;;;;;;-144.73;74.84;54407.69;6169700;23;20059;-70
2023/04/04 00:41:38;;;;;;;14.67;3.40;;;;;;;-144.73;74.89;54448.75;6221140;23;20001;-70
2023/04/04 00:44:04;;;;;;;14.10;3.87;;;;;;;-144.73;75.25;54399.50;6196058;23;20032;-70
2023/04/04 00:46:30;;;;;;;11.33;3.00;;;;;;;-144.73;75.59;54424.13;6211652;23;20020;-70
2023/04/04 00:48:56;;;;;;;12.87;3.50;;;;;;;-144.73;75.24;54436.44;6222316;23;20004;-71
2023/04/04 00:51:21;;;;;;;11.90;3.40;;;;;;;-144.73;74.99;54399.50;6212587;23;20044;-70
2023/04/04 00:53:47;;;;;;;14.47;3.00;;;;;;;-144.73;74.94;54407.69;6220927;23;20399;-70
2023/04/04 00:56:14;;;;;;;10.43;3.40;;;;;;;-144.73;75.11;54378.97;6211658;23;20012;-70
2023/04/04 00:58:41;;;;;;;7.37;2.77;;;;;;;-144.73;75.38;54411.81;6222256;23;20009;-70
2023/04/04 01:01:07;;;;;;;11.10;2.80;;;;;;;-144.73;75.43;54387.19;6213449;23;20100;-70
2023/04/04 01:03:32;;;;;;;7.47;2.57;;;;;;;-144.73;75.18;54420.00;6195575;23;20460;-70
2023/04/04 01:06:00;;;;;;;11.97;3.27;;;;;;;-144.73;74.97;54432.31;6187376;23;20016;-70
2023/04/04 01:08:28;;;;;;;9.43;3.10;;;;;;;-144.73;75.22;54411.81;6221727;23;20000;-70
2023/04/04 01:10:53;;;;;;;12.20;2.43;;;;;;;-144.73;75.29;54387.19;6213890;23;20100;-71
2023/04/04 01:13:20;;;;;;;12.00;2.70;;;;;;;-144.73;75.39;54399.50;6222396;23;20036;-71
2023/04/04 01:15:45;;;;;;;6.00;2.60;;;;;;;-144.73;75.50;54420.00;6214666;23;20537;-70
2023/04/04 01:18:13;;;;;;;8.53;3.37;;;;;;;-144.73;75.29;54411.81;6195346;23;20036;-70
2023/04/04 01:20:51;;;;;;;10.20;2.73;;;;;;;-144.73;75.28;54415.91;6215208;23;20017;-69
2023/04/04 01:23:17;;;;;;;14.27;2.67;;;;;;;-144.73;76.12;54383.06;6195311;23;20000;-69
2023/04/04 01:25:45;;;;;;;8.37;2.80;;;;;;;-144.73;76.13;54420.00;6188722;23;20047;-69
2023/04/04 01:28:10;;;;;;;15.37;3.23;;;;;;;-144.73;76.58;54378.97;6195258;23;20477;-69
2023/04/04 01:30:38;;;;;;;10.97;3.07;;;;;;;-144.73;76.66;54428.22;6214864;23;20086;-70
2023/04/04 01:33:12;;;;;;;8.40;2.57;;;;;;;-144.73;76.99;54424.13;6222241;23;20005;-70
2023/04/04 01:36:12;;;;;;;15.63;3.23;;;;;;;-144.73;76.47;54395.38;6188744;23;20020;-70
2023/04/04 01:38:50;;;;;;;10.90;3.00;;;;;;;-144.73;77.04;54370.75;6195415;23;20011;-71
2023/04/04 01:41:19;;;;;;;9.47;3.30;;;;;;;-144.73;77.09;54407.69;6186204;23;20071;-71
2023/04/04 01:43:47;;;;;;;10.53;2.93;;;;;;;-144.73;77.03;54428.22;6221900;23;20001;-71
2023/04/04 01:46:16;;;;;;;20.43;4.53;;;;;;;-144.73;77.47;54424.13;6212357;23;20013;-71
2023/04/04 01:48:41;;;;;;;13.70;3.10;;;;;;;-144.73;76.72;54366.66;6220068;23;20028;-69
2023/04/04 01:51:07;;;;;;;7.30;2.87;;;;;;;-144.73;76.96;54432.31;6215225;23;20016;-71
2023/04/04 01:53:33;;;;;;;17.43;2.90;;;;;;;-144.73;76.90;54432.31;6223560;23;20008;-68
2023/04/04 01:55:58;;;;;;;12.37;2.87;;;;;;;-144.73;77.21;54420.00;6189006;23;20040;-69
2023/04/04 01:58:24;;;;;;;13.17;2.77;;;;;;;-144.73;77.85;54395.38;6197182;23;20000;-70
2023/04/04 02:00:50;;;;;;;9.37;2.80;;;;;;;-144.73;78.22;54424.13;6216288;23;20017;-69
2023/04/04 02:03:16;;;;;;;12.40;3.00;;;;;;;-144.73;78.05;54374.84;6197276;23;19997;-70
2023/04/04 02:05:41;;;;;;;8.33;2.97;;;;;;;-144.73;77.78;54417.97;6189992;23;20067;-70
2023/04/04 02:08:06;;;;;;;11.30;2.37;;;;;;;-144.73;77.61;54420.00;6196202;23;20001;-69
2023/04/04 02:10:32;;;;;;;6.77;2.83;;;;;;;-144.73;78.08;54383.06;6217605;23;20323;-70
2023/04/04 02:12:57;;;;;;;9.37;2.90;;;;;;;-144.73;78.31;54420.00;6223836;23;20079;-70
2023/04/04 02:15:24;;;;;;;7.67;2.97;;;;;;;-144.73;78.01;54413.84;6190955;23;20091;-72
2023/04/04 02:17:49;;;;;;;10.37;2.40;;;;;;;-144.73;78.41;54444.66;6197166;23;20000;-71
2023/04/04 02:20:17;;;;;;;11.27;2.63;;;;;;;-144.73;78.83;54432.31;6191795;23;20008;-71
2023/04/04 02:22:49;;;;;;;9.63;3.00;;;;;;;-144.73;79.50;54387.19;6221601;23;20096;-70
2023/04/04 02:25:14;;;;;;;9.83;2.80;;;;;;;-144.73;79.61;54395.38;6215873;23;20024;-70
2023/04/04 02:27:40;;;;;;;7.47;2.43;;;;;;;-144.73;79.43;54389.22;6223375;23;20004;-70
2023/04/04 02:30:06;;;;;;;15.50;3.70;;;;;;;-144.73;79.94;54411.81;6191979;23;20017;-70
2023/04/04 02:32:31;;;;;;;8.67;2.50;;;;;;;-144.73;80.05;54395.38;6222521;23;20008;-70
2023/04/04 02:34:56;;;;;;;8.97;2.80;;;;;;;-144.73;80.62;54383.06;6217914;23;20013;-70
2023/04/04 02:37:22;;;;;;;11.93;3.07;;;;;;;-144.73;80.92;54374.84;6193265;23;20075;-70
2023/04/04 02:39:47;;;;;;;8.10;2.80;;;;;;;-144.73;81.33;54395.38;6193044;23;20016;-70
2023/04/04 02:42:12;;;;;;;11.23;3.07;;;;;;;-144.73;80.96;54432.31;6197114;23;20028;-70
2023/04/04 02:44:38;;;;;;;9.43;2.57;;;;;;;-144.73;80.90;54391.28;6193615;23;20012;-70
2023/04/04 02:47:04;;;;;;;12.57;3.23;;;;;;;-144.73;80.92;54407.69;6196495;23;20005;-69
2023/04/04 02:49:30;;;;;;;18.90;3.60;;;;;;;-144.73;80.54;54409.75;6219823;23;20013;-71
2023/04/04 02:51:56;;;;;;;9.93;3.10;;;;;;;-144.73;80.61;54399.50;6221542;23;20096;-70
2023/04/04 02:54:21;;;;;;;13.83;3.83;;;;;;;-144.73;80.97;54368.69;6194724;23;20001;-70
2023/04/04 02:56:47;;;;;;;10.27;3.20;;;;;;;-144.73;80.52;54413.84;6223278;23;20047;-70
2023/04/04 02:59:12;;;;;;;9.43;3.00;;;;;;;-144.73;80.22;54374.84;6219965;23;20036;-69
2023/04/04 03:01:37;;;;;;;11.67;3.80;;;;;;;-144.73;80.36;54391.28;6222945;23;20032;-69
2023/04/04 03:04:04;;;;;;;10.80;3.23;;;;;;;-144.73;80.52;54348.19;6195935;23;20000;-70
2023/04/04 03:06:32;;;;;;;13.07;3.03;;;;;;;-144.73;80.53;54440.53;6186149;23;20029;-70
2023/04/04 03:08:58;;;;;;;12.70;3.00;;;;;;;-144.73;80.29;54411.81;6222806;23;20004;-70
2023/04/04 03:11:23;;;;;;;7.43;2.70;;;;;;;-144.73;81.49;54420.00;6186801;23;20078;-70
2023/04/04 03:13:50;;;;;;;7.90;3.23;;;;;;;-144.73;81.88;54374.84;6197014;23;20035;-70
2023/04/04 03:16:18;;;;;;;6.00;2.83;;;;;;;-144.73;82.08;54391.28;6186992;23;20496;-70
2023/04/04 03:18:44;;;;;;;11.73;2.80;;;;;;;-144.73;82.04;54424.13;6196500;23;20111;-70
2023/04/04 03:21:09;;;;;;;8.90;3.23;;;;;;;-144.73;81.85;54391.28;6213412;23;20040;-70
2023/04/04 03:23:35;;;;;;;10.37;3.57;;;;;;;-144.73;81.83;54387.19;6195583;23;20004;-70
2023/04/04 03:26:00;;;;;;;12.20;4.40;;;;;;;-144.73;81.70;54362.53;6214146;23;20067;-70
2023/04/04 03:28:26;;;;;;;10.60;3.20;;;;;;;-144.73;81.60;54415.91;6222807;23;20047;-70
2023/04/04 03:30:52;;;;;;;15.13;3.60;;;;;;;-144.73;81.32;54378.97;6188773;23;20020;-70
2023/04/04 03:33:18;;;;;;;10.97;2.93;;;;;;;-144.73;81.24;54407.69;6223074;23;20000;-70
2023/04/04 03:35:43;;;;;;;7.70;3.03;;;;;;;-144.73;81.94;54415.91;6215560;23;20037;-71
2023/04/04 03:38:09;;;;;;;8.73;3.13;;;;;;;-144.73;82.39;54387.19;6196205;23;20012;-70
2023/04/04 03:40:35;;;;;;;11.43;3.83;;;;;;;-144.73;82.16;54407.69;6189723;23;20039;-70
2023/04/04 03:43:03;;;;;;;17.90;3.30;;;;;;;-144.73;81.41;54395.38;6196436;23;20441;-70
2023/04/04 03:45:33;;;;;;;5.77;2.63;;;;;;;-144.73;82.37;54393.34;6190138;23;20116;-70
2023/04/04 03:47:58;;;;;;;13.77;4.03;;;;;;;-144.73;82.95;54454.91;6220739;23;20043;-71
2023/04/04 03:50:24;;;;;;;10.37;3.27;;;;;;;-144.73;83.65;54407.69;6216544;23;20016;-70
2023/04/04 03:52:49;;;;;;;8.20;2.90;;;;;;;-144.73;83.07;54387.19;6222724;23;20032;-70
2023/04/04 03:55:15;;;;;;;11.00;3.43;;;;;;;-144.73;83.06;54461.06;6190634;23;20017;-70
2023/04/04 03:57:40;;;;;;;10.10;2.97;;;;;;;-144.73;82.91;54411.81;6195273;23;20023;-70
2023/04/04 04:00:06;;;;;;;14.43;4.13;;;;;;;-144.73;82.93;54407.69;6191172;23;20017;-70
2023/04/04 04:02:31;;;;;;;17.33;3.97;;;;;;;-144.73;83.61;54407.69;6223350;23;20004;-70
2023/04/04 04:04:57;;;;;;;7.87;2.70;;;;;;;-144.73;82.99;54420.00;6192064;23;20083;-70
2023/04/04 04:07:22;;;;;;;9.53;3.57;;;;;;;-144.73;83.71;54395.38;6194719;23;20048;-70
2023/04/04 04:09:47;;;;;;;7.17;2.63;;;;;;;-144.73;83.77;54407.69;6218775;23;20036;-70
2023/04/04 04:12:13;;;;;;;9.20;2.80;;;;;;;-144.73;83.43;54432.31;6195555;23;20009;-71
2023/04/04 04:14:38;;;;;;;11.87;3.13;;;;;;;-144.73;83.32;54399.50;6193103;23;20397;-70
2023/04/04 04:17:04;;;;;;;15.10;3.17;;;;;;;-144.73;83.37;54436.44;6195704;23;20008;-70
2023/04/04 04:19:29;;;;;;;14.17;3.37;;;;;;;-144.73;83.68;54407.69;6220302;23;20079;-70
2023/04/04 04:21:55;;;;;;;7.43;3.30;;;;;;;-144.73;83.72;54399.50;6196047;23;20426;-70
2023/04/04 04:24:20;;;;;;;12.13;3.33;;;;;;;-144.73;83.22;54411.81;6194590;23;20001;-70
2023/04/04 04:26:45;;;;;;;14.13;3.30;;;;;;;-144.73;83.53;54436.44;6222075;23;20055;-70
2023/04/04 04:29:11;;;;;;;12.50;3.30;;;;;;;-144.73;83.60;54415.91;6219561;23;20008;-71
2023/04/04 04:31:37;;;;;;;13.07;3.20;;;;;;;-144.73;83.98;54420.00;6196221;23;20091;-70
2023/04/04 04:34:10;;;;;;;8.33;2.97;;;;;;;-144.73;84.20;54407.69;6194988;23;20442;-70
2023/04/04 04:36:35;;;;;;;7.90;3.23;;;;;;;-144.73;83.88;54383.06;6209679;23;20376;-70
2023/04/04 04:39:01;;;;;;;11.90;3.27;;;;;;;-144.73;83.80;54407.69;6222260;23;20003;-70
2023/04/04 04:41:28;;;;;;;15.33;3.40;;;;;;;-144.73;84.12;54378.97;6185940;23;20023;-71
2023/04/04 04:43:54;;;;;;;13.70;3.67;;;;;;;-144.73;83.66;54417.97;6196144;23;20087;-70
2023/04/04 04:46:19;;;;;;;14.93;3.87;;;;;;;-144.73;83.48;54428.22;6185600;23;20024;-70
2023/04/04 04:48:44;;;;;;;12.97;3.00;;;;;;;-144.73;83.59;54420.00;6221687;23;20008;-71
2023/04/04 04:51:10;;;;;;;15.37;3.53;;;;;;;-144.73;84.44;54374.84;6186440;23;20362;-71
2023/04/04 04:53:36;;;;;;;11.57;3.47;;;;;;;-144.73;84.95;54407.69;6195557;23;20004;-71
2023/04/04 04:56:01;;;;;;;15.50;3.77;;;;;;;-144.73;84.56;54391.28;6186776;23;20016;-71
2023/04/04 04:58:26;;;;;;;17.40;3.53;;;;;;;-144.73;84.23;54374.84;6195458;23;20005;-71
2023/04/04 05:00:58;;;;;;;12.00;3.67;;;;;;;-144.73;84.13;54426.16;6212979;23;20043;-71
2023/04/04 05:03:23;;;;;;;;;;;;;;;-144.73;84.30;54391.28;6196533;23;20008;-71
2023/04/04 05:05:50;;;;;;;13.43;4.03;;;;;;;-144.73;84.20;54428.22;6188626;23;19907;-69
2023/04/04 05:08:15;;;;;;;15.83;4.17;;;;;;;-144.73;84.35;54415.91;6221843;23;20011;-71
2023/04/04 05:10:41;;;;;;;13.93;4.20;;;;;;;-144.73;84.08;54448.75;6187968;23;20016;-71
2023/04/04 05:13:06;;;;;;;11.53;4.23;;;;;;;-144.73;84.27;54395.38;6221624;23;20027;-71
2023/04/04 05:15:32;;;;;;;14.57;4.43;;;;;;;-144.73;84.33;54426.16;6214430;23;20132;-71
2023/04/04 05:17:58;;;;;;;11.33;4.80;;;;;;;-144.73;84.57;54411.81;6194733;23;20005;-71
2023/04/04 05:20:23;;;;;;;11.40;4.27;;;;;;;-144.73;84.51;54387.19;6189275;23;20031;-71
2023/04/04 05:22:49;;;;;;;14.60;4.53;;;;;;;-144.73;84.51;54420.00;6194934;23;20008;-71
2023/04/04 05:25:14;;;;;;;12.33;3.97;;;;;;;-144.73;83.88;54374.84;6216331;23;20016;-71
2023/04/04 05:27:40;;;;;;;13.13;4.37;;;;;;;-144.73;84.21;54411.81;6195260;23;19996;-70
2023/04/04 05:30:09;;;;;;;21.93;3.60;;;;;;;-144.73;83.96;54420.00;6197562;23;20021;-71
2023/04/04 05:32:34;;;;;;;10.93;3.80;;;;;;;-144.73;84.42;54395.38;6222006;23;20004;-72
2023/04/04 05:35:00;;;;;;;14.20;4.17;;;;;;;-144.73;85.00;54411.81;6217347;23;20013;-72
2023/04/04 05:37:26;;;;;;;17.53;3.83;;;;;;;-144.73;85.43;54436.44;6194954;23;20099;-71
2023/04/04 05:39:52;;;;;;;19.20;5.80;;;;;;;-144.73;85.21;54395.38;6191642;23;20023;-71
2023/04/04 05:42:17;;;;;;;16.67;5.43;;;;;;;-144.73;84.24;54407.69;6195158;23;20004;-71
2023/04/04 05:44:43;;;;;;;12.63;3.90;;;;;;;-144.73;84.04;54407.69;6217366;23;20017;-72
2023/04/04 05:47:09;;;;;;;6.77;3.40;;;;;;;-144.73;83.90;54424.13;6221384;23;20464;-70
2023/04/04 05:49:34;;;;;;;10.00;3.30;;;;;;;-144.73;84.42;54415.91;6216436;23;20025;-71
2023/04/04 05:52:00;;;;;;;12.93;4.20;;;;;;;-144.73;83.71;54391.28;6195369;23;20001;-71
2023/04/04 05:54:25;;;;;;;10.43;3.67;;;;;;;-144.73;83.66;54448.75;6193936;23;20001;-72
2023/04/04 05:56:51;;;;;;;16.57;4.57;;;;;;;-144.73;84.05;54393.34;6195649;23;20001;-71
2023/04/04 05:59:16;;;;;;;10.73;4.07;;;;;;;-144.73;84.32;54420.00;6193616;23;20004;-71
2023/04/04 06:01:42;;;;;;;12.73;3.57;;;;;;;-144.73;83.56;54383.06;6195314;23;20310;-71
2023/04/04 06:04:07;;;;;;;8.10;3.40;;;;;;;-144.73;83.81;54432.31;6195243;23;20009;-69
2023/04/04 06:06:33;;;;;;;11.93;3.97;;;;;;;-144.73;83.97;54391.28;6210838;23;20414;-70
2023/04/04 06:08:59;;;;;;;13.60;4.40;;;;;;;-144.73;83.12;54415.91;6194482;23;20011;-71
2023/04/04 06:11:25;;;;;;;17.77;4.37;;;;;;;-144.73;83.44;54420.00;6210172;23;20013;-71
2023/04/04 06:13:51;;;;;;;10.10;3.60;;;;;;;-144.73;83.44;54391.28;6195079;23;20024;-70
2023/04/04 06:16:17;;;;;;;20.97;4.10;;;;;;;-144.73;82.72;54432.31;6184666;23;20012;-71
2023/04/04 06:18:43;;;;;;;11.63;4.03;;;;;;;-144.73;82.81;54436.44;6221674;23;20000;-70
2023/04/04 06:21:08;;;;;;;9.93;3.97;;;;;;;-144.73;82.31;54448.75;6210178;23;20028;-70
2023/04/04 06:23:36;;;;;;;11.83;3.60;;;;;;;-144.73;81.94;54420.00;6194439;23;19996;-71
2023/04/04 06:26:02;;;;;;;11.13;3.13;;;;;;;-144.73;81.16;54411.81;6212624;23;20023;-70
2023/04/04 06:28:27;;;;;;;9.10;3.17;;;;;;;-144.73;81.15;54420.00;6194505;23;20008;-70
2023/04/04 06:30:52;;;;;;;16.50;4.00;;;;;;;-144.73;80.91;54424.13;6213270;23;20016;-70
2023/04/04 06:33:18;;;;;;;13.80;4.20;;;;;;;-144.73;80.76;54399.50;6195534;23;20004;-68
2023/04/04 06:35:43;;;;;;;30.50;3.57;;;;;;;-144.73;80.50;54424.13;6190517;23;20013;-68
2023/04/04 06:38:10;;;;;;;17.40;3.43;;;;;;;-144.73;79.54;54407.69;6224713;23;20007;-68
2023/04/04 06:40:35;;;;;;;20.37;3.37;;;;;;;-144.73;79.52;54420.00;6217137;23;20016;-69
2023/04/04 06:43:01;;;;;;;11.27;3.30;;;;;;;-144.73;79.28;54383.06;6197823;23;20009;-68
2023/04/04 06:45:27;;;;;;;12.73;3.40;;;;;;;-144.73;78.35;54399.50;6191549;23;20014;-68
2023/04/04 06:47:53;;;;;;;12.20;3.00;;;;;;;-144.73;78.11;54395.38;6197370;23;20012;-68
2023/04/04 06:50:22;;;;;;;19.47;3.43;;;;;;;-144.73;76.42;54440.53;6218746;23;20013;-68
2023/04/04 06:52:48;;;;;;;10.13;3.33;;;;;;;-144.73;76.28;54428.22;6224879;23;20001;-68
2023/04/04 06:55:14;;;;;;;9.57;3.13;;;;;;;-144.73;76.13;54407.69;6211304;23;20100;-70
2023/04/04 06:57:40;;;;;;;10.40;3.80;;;;;;;-144.73;76.57;54436.44;6213596;23;20035;-68
2023/04/04 07:00:06;;;;;;;13.00;3.60;;;;;;;-144.73;76.17;54415.91;6213105;23;20136;-68
2023/04/04 07:02:32;;;;;;;9.13;3.60;;;;;;;-144.73;75.66;54415.91;6191745;23;20027;-69
2023/04/04 07:04:57;;;;;;;10.30;2.73;;;;;;;-144.73;75.22;54415.91;6188392;23;20039;-69
2023/04/04 07:07:23;;;;;;;16.20;2.78;;;;;;;-144.73;74.55;54444.66;6191840;23;20035;-68
2023/04/04 07:09:49;;;;;;;7.68;2.85;;;;;;;-144.73;74.50;54432.31;6212820;23;20016;-69
2023/04/04 07:12:14;;;;;;;14.70;2.95;;;;;;;-144.73;73.53;54387.19;6191976;23;20028;-69
2023/04/04 07:14:40;;;;;;;8.63;2.80;;;;;;;-144.73;74.43;54395.38;6187855;23;20013;-69
2023/04/04 07:17:06;;;;;;;10.33;2.40;;;;;;;-144.73;72.94;54424.13;6192630;23;20000;-67
2023/04/04 07:19:31;;;;;;;12.93;2.67;;;;;;;-144.73;71.39;54407.69;6215439;23;20016;-68
2023/04/04 07:21:57;;;;;;;4.53;2.00;;;;;;;-144.73;71.05;54426.16;6191516;23;20005;-68
2023/04/04 07:24:22;;;;;;;10.38;2.80;;;;;;;-144.73;70.81;54407.69;6189708;23;20001;-68
2023/04/04 07:26:47;;;;;;;12.20;2.73;;;;;;;-144.73;69.95;54399.50;6191396;23;19997;-67
2023/04/04 07:29:13;;;;;;;9.47;1.90;;;;;;;-144.73;69.26;54432.31;6190463;23;20425;-69
2023/04/04 07:31:38;;;;;;;14.00;2.47;;;;;;;-144.73;69.09;54407.69;6190350;23;20014;-68
2023/04/04 07:34:04;;;;;;;9.27;2.53;;;;;;;-144.73;67.83;54436.44;6192059;23;20040;-68
2023/04/04 07:36:30;;;;;;;6.68;2.30;;;;;;;-144.73;67.86;54407.69;6205365;23;20024;-67
2023/04/04 07:38:55;;;;;;;10.50;3.10;;;;;;;-144.73;69.56;54411.81;6191507;23;19997;-67
2023/04/04 07:41:21;;;;;;;5.53;2.42;;;;;;;-144.73;68.40;54391.28;6182038;23;20094;-68
2023/04/04 07:43:47;;;;;;;10.90;2.78;;;;;;;-144.73;67.40;54389.22;6190345;23;20031;-67
2023/04/04 07:46:13;;;;;;;10.50;2.45;;;;;;;-144.73;67.86;54387.19;6182048;23;20017;-67
2023/04/04 07:48:38;;;;;;;6.95;2.40;;;;;;;-144.73;67.44;54444.66;6190944;23;20009;-67
2023/04/04 07:51:04;;;;;;;14.90;3.50;;;;;;;-144.73;64.09;54397.44;6182900;23;20040;-69
2023/04/04 07:53:30;;;;;;;6.22;1.75;;;;;;;-144.73;65.08;54391.28;6190639;23;20013;-68
2023/04/04 07:55:55;;;;;;;6.38;1.95;;;;;;;-144.73;62.85;54397.44;6182557;23;20012;-67
2023/04/04 07:58:21;;;;;;;4.72;2.17;;;;;;;-144.73;64.51;54411.81;6192085;23;20001;-68
2023/04/04 08:00:47;;;;;;;8.70;2.22;;;;;;;-144.73;63.58;54424.13;6182577;23;20044;-68
2023/04/04 08:03:12;;;;;;;8.13;2.00;;;;;;;-144.73;61.64;54428.22;6192000;23;20319;-68
2023/04/04 08:05:38;;;;;;;7.78;2.25;;;;;;;-144.73;60.34;54374.84;6183478;23;20017;-67
2023/04/04 08:08:03;;;;;;;5.72;2.05;;;;;;;-144.73;58.78;54337.91;6215950;23;20001;-68
2023/04/04 08:10:29;;;;;;;10.68;1.83;;;;;;;-144.73;57.22;54391.28;6183925;23;20008;-68
2023/04/04 08:12:54;;;;;;;8.07;2.20;;;;;;;-144.73;58.27;54364.59;6215347;23;20040;-67
2023/04/04 08:15:20;;;;;;;8.80;2.13;;;;;;;-144.73;58.78;54424.13;6185882;23;20063;-68
2023/04/04 08:17:45;;;;;;;8.88;1.80;;;;;;;-144.73;57.09;54387.19;6217076;23;20072;-67
2023/04/04 08:20:11;;;;;;;5.18;1.80;;;;;;;-144.73;54.61;54448.75;6213150;23;20015;-67
2023/04/04 08:22:38;;;;;;;8.38;2.15;;;;;;;-144.73;54.10;54407.69;6215804;23;20337;-67
2023/04/04 08:25:04;;;;;;;8.68;2.17;;;;;;;-144.73;54.71;54420.00;6211099;23;20040;-67
2023/04/04 08:27:30;;;;;;;6.75;1.48;;;;;;;-144.73;53.59;54378.97;6190964;23;20011;-68
2023/04/04 08:29:56;;;;;;;6.38;2.00;;;;;;;-144.73;54.61;54387.19;6212999;23;20084;-68
2023/04/04 08:32:21;;;;;;;7.07;1.80;;;;;;;-144.73;52.58;54417.97;6216435;23;20000;-68
2023/04/04 08:34:47;;;;;;;3.60;1.70;;;;;;;-144.73;54.06;54395.38;6187172;23;20012;-68
2023/04/04 08:37:13;;;;;;;10.82;2.45;;;;;;;-144.73;53.56;54346.13;6215718;23;19996;-68
2023/04/04 08:39:38;;;;;;;7.60;2.40;;;;;;;-144.73;53.49;54444.66;6187906;23;20012;-68
2023/04/04 08:42:06;;;;;;;7.97;2.30;;;;;;;-144.73;53.17;54378.97;6190208;23;20010;-68
2023/04/04 08:44:33;;;;;;;5.88;2.17;;;;;;;-144.73;52.72;54378.97;6215050;23;20083;-69
2023/04/04 08:47:03;;;;;;;9.20;2.20;;;;;;;-144.73;52.09;54364.59;6190259;23;20011;-68
2023/04/04 08:49:34;;;;;;;6.25;2.25;;;;;;;-144.73;51.22;54391.28;6213958;23;20025;-68
2023/04/04 08:52:01;;;;;;;6.03;1.70;;;;;;;-144.73;50.64;54383.06;6191461;23;20084;-68
2023/04/04 08:54:27;;;;;;;5.55;2.10;;;;;;;-144.73;50.67;54407.69;6213821;23;20012;-68
2023/04/04 08:56:53;;;;;;;8.68;1.92;;;;;;;-144.73;49.47;54381.00;6216356;23;20067;-68
2023/04/04 08:59:19;;;;;;;6.70;1.55;;;;;;;-144.73;48.31;54395.38;6215999;23;20023;-68
2023/04/04 09:01:45;;;;;;;8.95;1.88;;;;;;;-144.73;49.13;54407.69;6215208;23;20087;-68
2023/04/04 09:04:10;;;;;;;6.78;2.00;;;;;;;-144.73;48.70;54378.97;6189911;23;20425;-68
2023/04/04 09:06:36;;;;;;;9.27;1.63;;;;;;;-144.73;48.07;54362.53;6189707;23;20001;-68
2023/04/04 09:09:02;;;;;;;7.95;1.80;;;;;;;-144.73;47.66;54415.91;6215277;23;20059;-68
2023/04/04 09:11:30;;;;;;;10.13;2.42;;;;;;;-144.73;45.32;54383.06;6206419;23;20090;-68
2023/04/04 09:13:57;;;;;;;15.82;2.22;;;;;;;-144.73;43.34;54393.34;6214876;23;19997;-68
2023/04/04 09:16:22;;;;;;;6.85;1.75;;;;;;;-144.73;42.94;54358.44;6180918;23;20012;-68
2023/04/04 09:18:48;;;;;;;6.68;2.13;;;;;;;-144.73;44.16;54366.66;6214914;23;19996;-68
2023/04/04 09:21:13;;;;;;;11.30;2.13;;;;;;;-144.73;45.06;54374.84;6181255;23;20020;-68
2023/04/04 09:23:39;;;;;;;9.55;2.55;;;;;;;-144.73;43.00;54407.69;6190020;23;20035;-68
2023/04/04 09:26:05;;;;;;;7.25;1.90;;;;;;;-144.73;43.37;54385.13;6206246;23;20019;-68
2023/04/04 09:28:32;;;;;;;5.22;1.98;;;;;;;-144.73;43.61;54364.59;6190762;23;20008;-68
2023/04/04 09:31:00;;;;;;;6.65;1.90;;;;;;;-144.73;43.34;54407.69;6181893;23;20483;-67
2023/04/04 09:33:26;;;;;;;5.45;1.98;;;;;;;-144.73;43.25;54407.69;6217080;23;20008;-67
2023/04/04 09:36:01;;;;;;;10.65;2.28;;;;;;;-144.73;43.04;54360.50;6183171;23;20020;-68
2023/04/04 09:38:28;;;;;;;6.57;1.80;;;;;;;-144.73;42.65;54387.19;6190212;23;20003;-68
2023/04/04 09:40:54;;;;;;;5.10;1.50;;;;;;;-144.73;40.97;54362.53;6207229;23;20031;-67
2023/04/04 09:43:21;;;;;;;4.93;1.58;;;;;;;-144.73;39.55;54422.06;6190673;23;20016;-67
2023/04/04 09:45:47;;;;;;;6.97;2.10;;;;;;;-144.73;40.61;54298.91;6207256;23;20012;-68
2023/04/04 09:48:24;;;;;;;5.38;1.42;;;;;;;-144.73;39.64;54407.69;6215917;23;20031;-67
2023/04/04 09:50:49;;;;;;;6.30;1.95;;;;;;;-144.73;39.21;54333.81;6209768;23;20012;-68
2023/04/04 09:53:17;;;;;;;5.63;1.70;;;;;;;-144.73;38.30;54374.84;6189823;23;20038;-68
2023/04/04 09:55:49;;;;;;;6.45;2.00;;;;;;;-144.73;38.54;54370.75;6209215;23;20013;-68
2023/04/04 09:58:16;;;;;;;12.50;1.80;;;;;;;-144.73;38.90;54378.97;6191129;23;19996;-68
2023/04/04 10:00:47;;;;;;;9.30;1.73;;;;;;;-144.73;39.44;54329.72;6207467;23;20058;-68
2023/04/04 10:03:16;;;;;;;5.55;1.60;;;;;;;-144.73;37.22;54381.00;6214651;23;20004;-68
2023/04/04 10:05:44;;;;;;;5.20;1.73;;;;;;;-144.73;38.16;54378.97;6210728;23;20027;-68
2023/04/04 10:08:20;;;;;;;6.88;1.85;;;;;;;-144.73;37.19;54364.59;6189863;23;20083;-68
2023/04/04 10:10:58;;;;;;;3.42;1.20;;;;;;;-144.73;35.43;54383.06;6210219;23;20020;-68
2023/04/04 10:13:31;;;;;;;5.07;1.30;;;;;;;-144.73;34.58;54354.34;6191286;23;20031;-67
2023/04/04 10:15:58;;;;;;;5.95;1.20;;;;;;;-144.73;35.50;54356.38;6208949;23;20012;-67
2023/04/04 10:18:26;;;;;;;3.90;1.42;;;;;;;-144.73;34.25;54358.44;6219103;23;20012;-68
2023/04/04 10:20:59;;;;;;;3.13;1.10;;;;;;;-144.73;34.89;54385.13;6181612;23;20461;-67
2023/04/04 10:23:26;;;;;;;5.88;2.80;;;;;;;-144.73;32.92;54319.44;6191198;23;20043;-67
2023/04/04 10:25:57;;;;;;;5.85;1.73;;;;;;;-144.73;33.98;54362.53;6210508;23;20013;-70
2023/04/04 10:28:23;;;;;;;3.93;1.50;;;;;;;-144.73;33.20;54366.66;6218904;23;20004;-68
2023/04/04 10:31:17;;;;;;;5.72;1.35;;;;;;;-144.73;33.16;54374.84;6210400;23;20028;-68
2023/04/04 10:34:09;;;;;;;5.18;1.55;;;;;;;-144.73;33.21;54366.66;6192674;23;20055;-68
2023/04/04 10:36:49;;;;;;;2.35;1.20;;;;;;;-144.73;32.19;54358.44;6207785;23;20016;-67
2023/04/04 10:39:23;;;;;;;2.50;1.17;;;;;;;-144.73;31.53;54362.53;6189790;23;20008;-67
2023/04/04 10:41:49;;;;;;;4.68;1.60;;;;;;;-144.73;32.78;54364.59;6218967;23;19996;-68
2023/04/04 10:44:29;;;;;;;3.40;0.85;;;;;;;-144.73;31.89;54389.22;6191250;23;20012;-68
2023/04/04 10:46:57;;;;;;;3.33;1.23;;;;;;;-144.73;31.67;54376.91;6217568;23;20001;-68
2023/04/04 10:49:23;;;;;;;1.77;0.75;;;;;;;-144.73;31.79;54366.66;6188978;23;20004;-68
2023/04/04 10:51:51;;;;;;;4.88;0.90;;;;;;;-144.73;30.74;54370.75;6218638;23;20082;-68
2023/04/04 10:54:17;;;;;;;1.95;0.82;;;;;;;-144.73;29.75;54378.97;6189891;23;20001;-68
2023/04/04 10:56:43;;;;;;;4.32;1.40;;;;;;;-144.73;29.94;54366.66;6191176;23;20024;-67
2023/04/04 10:59:14;;;;;;;5.43;1.35;;;;;;;-144.73;30.34;54407.69;6218247;23;19996;-68
2023/04/04 11:01:56;;;;;;;7.18;1.08;;;;;;;-144.73;30.02;54333.81;6191731;23;20004;-68
2023/04/04 11:04:30;;;;;;;4.95;1.20;;;;;;;-144.73;30.00;54391.28;6216065;23;20137;-68
2023/04/04 11:07:17;;;;;;;10.15;1.50;;;;;;;-144.73;30.23;54374.84;6191784;23;20001;-68
2023/04/04 11:09:48;;;;;;;3.72;1.10;;;;;;;-144.73;29.98;54378.97;6215827;23;20349;-68
2023/04/04 11:12:19;;;;;;;6.65;1.00;;;;;;;-144.73;30.26;54374.84;6214352;23;20008;-71